Time;durP1;ratioP1;P1;durP2;ratioP2;P2;SDS_P1;SDS_P2;PMS_P1;PMS_P2;Temp;Humidity;BMP_temperature;BMP_pressure;BME280_temperature;BME280_humidity;BME280_pressure;Samples;Min_cycle;Max_cycle;Signal;HPM_P1;HPM_P2
2021/10/16 00:00:39;;;;;;;19.03;4.53;;;6.30;99.90;;;;;;5049603;28;20368;-84
2021/10/16 00:03:06;;;;;;;14.17;3.90;;;6.30;99.90;;;;;;5048369;28;20399;-84
2021/10/16 00:05:31;;;;;;;13.52;4.10;;;6.30;99.90;;;;;;5044462;28;20905;-83
2021/10/16 00:07:57;;;;;;;9.77;3.38;;;6.30;99.90;;;;;;5047927;28;20387;-84
2021/10/16 00:10:23;;;;;;;17.30;4.10;;;6.30;99.90;;;;;;5049722;28;20453;-85
2021/10/16 00:12:50;;;;;;;16.35;4.22;;;6.20;99.90;;;;;;5048187;28;20776;-84
2021/10/16 00:15:16;;;;;;;17.10;4.30;;;6.20;99.90;;;;;;5040265;28;20914;-84
2021/10/16 00:17:42;;;;;;;16.08;4.57;;;6.20;99.90;;;;;;5044932;28;20400;-84
2021/10/16 00:20:09;;;;;;;15.95;4.07;;;6.20;99.90;;;;;;5038594;28;20388;-83
2021/10/16 00:22:34;;;;;;;15.52;4.03;;;6.10;99.90;;;;;;5047431;28;20388;-84
2021/10/16 00:25:00;;;;;;;19.13;4.03;;;6.10;99.90;;;;;;5047714;28;20387;-84
2021/10/16 00:27:27;;;;;;;16.07;4.00;;;6.10;99.90;;;;;;5047598;28;20395;-84
2021/10/16 00:29:52;;;;;;;16.30;4.20;;;6.00;99.90;;;;;;5048039;28;20892;-83
2021/10/16 00:32:18;;;;;;;19.13;4.18;;;6.00;99.90;;;;;;5050572;28;20400;-82
2021/10/16 00:34:44;;;;;;;21.73;4.72;;;6.00;99.90;;;;;;5052047;28;20383;-84
2021/10/16 00:37:09;;;;;;;19.63;5.00;;;5.90;99.90;;;;;;5051970;28;20368;-83
2021/10/16 00:39:35;;;;;;;15.40;4.00;;;5.90;99.90;;;;;;5052769;28;20462;-83
2021/10/16 00:42:07;;;;;;;14.90;4.33;;;5.80;99.90;;;;;;5051608;28;20387;-84
2021/10/16 00:44:33;;;;;;;12.52;3.88;;;5.80;99.90;;;;;;5051076;28;20388;-83
2021/10/16 00:46:59;;;;;;;15.93;4.28;;;5.70;99.90;;;;;;5052864;28;21008;-83
2021/10/16 00:49:28;;;;;;;14.63;3.90;;;5.70;99.90;;;;;;5051704;28;20763;-83
2021/10/16 00:51:55;;;;;;;19.48;4.40;;;5.70;99.90;;;;;;5052967;28;20874;-83
2021/10/16 00:54:22;;;;;;;15.38;4.10;;;5.70;99.90;;;;;;5052541;28;20455;-84
2021/10/16 00:56:53;;;;;;;16.13;4.80;;;5.60;99.90;;;;;;5051827;28;20410;-83
2021/10/16 00:59:19;;;;;;;18.05;4.28;;;5.60;99.90;;;;;;5051915;28;20418;-84
2021/10/16 01:01:45;;;;;;;16.13;4.07;;;5.60;99.90;;;;;;5052563;28;20383;-82
2021/10/16 01:04:11;;;;;;;13.02;4.25;;;5.60;99.90;;;;;;5051021;28;20403;-83
2021/10/16 01:06:38;;;;;;;11.27;3.53;;;5.60;99.90;;;;;;5051202;28;20723;-84
2021/10/16 01:09:12;;;;;;;16.92;3.92;;;5.60;99.90;;;;;;5051651;28;20467;-84
2021/10/16 01:11:51;;;;;;;15.83;3.77;;;5.50;99.90;;;;;;5048517;28;20391;-84
2021/10/16 01:14:18;;;;;;;13.48;3.72;;;5.50;99.90;;;;;;5050459;28;20388;-83
2021/10/16 01:16:49;;;;;;;14.20;4.17;;;5.40;99.90;;;;;;5049609;28;20840;-84
2021/10/16 01:19:18;;;;;;;15.77;4.32;;;5.30;99.90;;;;;;5051848;28;20845;-83
2021/10/16 01:21:58;;;;;;;10.32;3.55;;;5.30;99.90;;;;;;5051111;28;20396;-84
2021/10/16 01:24:24;;;;;;;10.70;3.95;;;5.30;99.90;;;;;;5051907;28;20449;-84
2021/10/16 01:26:51;;;;;;;10.47;3.80;;;5.20;99.90;;;;;;5052907;28;20468;-83
2021/10/16 01:29:22;;;;;;;13.73;4.03;;;5.20;99.90;;;;;;5052636;28;20433;-84
2021/10/16 01:31:48;;;;;;;13.57;3.67;;;5.20;99.90;;;;;;5052655;28;20376;-83
2021/10/16 01:34:13;;;;;;;12.00;3.70;;;5.20;99.90;;;;;;5050827;28;20383;-84
2021/10/16 01:36:44;;;;;;;9.40;3.30;;;5.20;99.90;;;;;;5050168;28;20494;-83
2021/10/16 01:39:10;;;;;;;20.63;4.53;;;5.20;99.90;;;;;;5052305;28;20403;-83
2021/10/16 01:41:36;;;;;;;14.32;3.85;;;5.10;99.90;;;;;;5051297;28;20902;-83
2021/10/16 01:44:07;;;;;;;18.00;4.30;;;5.10;99.90;;;;;;5050876;28;20380;-83
2021/10/16 01:46:33;;;;;;;15.73;4.38;;;5.10;99.90;;;;;;5050334;28;20797;-83
2021/10/16 01:49:05;;;;;;;19.58;4.78;;;5.10;99.90;;;;;;5052576;28;20371;-83
2021/10/16 01:51:31;;;;;;;13.50;3.95;;;5.10;99.90;;;;;;5050577;28;20368;-83
2021/10/16 01:53:57;;;;;;;14.82;4.47;;;5.10;99.90;;;;;;5050403;28;20707;-83
2021/10/16 01:56:22;;;;;;;16.77;4.70;;;5.10;99.90;;;;;;5051520;28;20922;-83
2021/10/16 01:58:48;;;;;;;17.90;4.50;;;5.20;99.90;;;;;;5051614;28;20399;-82
2021/10/16 02:01:13;;;;;;;12.30;3.87;;;5.20;99.90;;;;;;5050615;28;20441;-84
2021/10/16 02:03:39;;;;;;;11.98;3.80;;;5.20;99.90;;;;;;5051032;28;20873;-83
2021/10/16 02:06:06;;;;;;;12.05;3.70;;;5.20;99.90;;;;;;5050217;28;21003;-83
2021/10/16 02:08:31;;;;;;;17.65;4.20;;;5.10;99.90;;;;;;5048885;28;20458;-83
2021/10/16 02:10:57;;;;;;;16.30;4.27;;;5.10;99.90;;;;;;5049100;28;20775;-83
2021/10/16 02:13:23;;;;;;;18.20;4.30;;;5.10;99.90;;;;;;5048045;28;20430;-83
2021/10/16 02:15:50;;;;;;;15.60;4.78;;;5.10;99.90;;;;;;5049608;28;20379;-83
2021/10/16 02:18:16;;;;;;;18.80;4.43;;;5.00;99.90;;;;;;5048715;28;20403;-83
2021/10/16 02:20:42;;;;;;;14.60;4.50;;;5.00;99.90;;;;;;5049541;28;20375;-83
2021/10/16 02:23:07;;;;;;;12.60;4.30;;;5.00;99.90;;;;;;5047946;28;20425;-83
2021/10/16 02:25:33;;;;;;;16.90;4.85;;;5.00;99.90;;;;;;5047428;28;20415;-83
2021/10/16 02:27:58;;;;;;;15.45;4.28;;;5.00;99.90;;;;;;5048521;28;20372;-83
2021/10/16 02:30:24;;;;;;;18.63;4.83;;;5.00;99.90;;;;;;5048206;28;20387;-83
2021/10/16 02:32:50;;;;;;;14.43;4.00;;;5.00;99.90;;;;;;5049788;28;20364;-83
2021/10/16 02:35:18;;;;;;;13.05;4.38;;;5.00;99.90;;;;;;5048528;28;20387;-83
2021/10/16 02:37:44;;;;;;;15.05;4.95;;;5.00;99.90;;;;;;5049481;28;21113;-83
2021/10/16 02:40:10;;;;;;;15.17;4.70;;;5.00;99.90;;;;;;5047783;28;20809;-83
2021/10/16 02:42:35;;;;;;;17.20;4.70;;;5.00;99.90;;;;;;5048166;28;20379;-83
2021/10/16 02:45:01;;;;;;;14.73;4.33;;;4.90;99.90;;;;;;5050012;28;20467;-83
2021/10/16 02:47:30;;;;;;;13.32;4.60;;;4.90;99.90;;;;;;5049911;28;20415;-83
2021/10/16 02:49:57;;;;;;;13.05;3.95;;;4.90;99.90;;;;;;5048224;28;20886;-83
2021/10/16 02:52:23;;;;;;;12.43;4.05;;;4.90;99.90;;;;;;5048062;28;20423;-82
2021/10/16 02:54:49;;;;;;;10.80;3.65;;;5.00;99.90;;;;;;5049198;28;20418;-83
2021/10/16 02:57:14;;;;;;;16.70;4.40;;;5.00;99.90;;;;;;5048690;28;20376;-83
2021/10/16 02:59:40;;;;;;;11.50;3.47;;;5.10;99.90;;;;;;5049166;28;20731;-82
2021/10/16 03:02:05;;;;;;;12.50;4.07;;;5.20;99.90;;;;;;5048451;28;20504;-83
2021/10/16 03:04:31;;;;;;;15.83;4.53;;;5.30;99.90;;;;;;5047497;28;20379;-83
2021/10/16 03:06:57;;;;;;;9.07;3.70;;;5.30;99.90;;;;;;5047233;28;20410;-83
2021/10/16 03:09:22;;;;;;;11.18;4.00;;;5.40;99.90;;;;;;5047552;28;20375;-83
2021/10/16 03:11:48;;;;;;;10.57;3.70;;;5.40;99.90;;;;;;5049064;28;20805;-83
2021/10/16 03:14:14;;;;;;;11.23;3.72;;;5.50;99.90;;;;;;5049426;28;20364;-83
2021/10/16 03:16:39;;;;;;;16.53;4.60;;;5.70;99.90;;;;;;5047526;28;20479;-83
2021/10/16 03:19:05;;;;;;;13.60;4.07;;;5.80;99.90;;;;;;5047217;28;20406;-83
2021/10/16 03:21:36;;;;;;;10.18;3.80;;;5.80;99.90;;;;;;5046785;28;20498;-84
2021/10/16 03:24:03;;;;;;;11.57;4.30;;;5.90;99.90;;;;;;5047509;28;20395;-83
2021/10/16 03:26:28;;;;;;;14.60;4.43;;;6.00;99.90;;;;;;5047285;28;20395;-84
2021/10/16 03:28:54;;;;;;;15.83;4.87;;;6.10;99.90;;;;;;5048943;28;20750;-83
2021/10/16 03:31:19;;;;;;;9.93;4.20;;;6.10;99.90;;;;;;5048704;28;20486;-83
2021/10/16 03:33:45;;;;;;;9.00;4.05;;;6.20;99.90;;;;;;5049270;28;20379;-83
2021/10/16 03:36:11;;;;;;;13.27;4.70;;;6.30;99.90;;;;;;5048929;28;20904;-83
2021/10/16 03:38:36;;;;;;;13.20;4.67;;;6.40;99.90;;;;;;5049250;28;20450;-83
2021/10/16 03:41:02;;;;;;;11.63;4.63;;;6.40;99.90;;;;;;5049208;28;20373;-83
2021/10/16 03:43:27;;;;;;;14.13;4.00;;;6.40;99.90;;;;;;5048976;28;20380;-83
2021/10/16 03:45:53;;;;;;;13.40;4.67;;;6.50;99.90;;;;;;5047868;28;20430;-83
2021/10/16 03:48:19;;;;;;;10.03;3.80;;;6.50;99.90;;;;;;5048052;28;20436;-83
2021/10/16 03:50:45;;;;;;;7.57;3.83;;;6.60;99.90;;;;;;5048522;28;20383;-83
2021/10/16 03:53:11;;;;;;;9.33;3.80;;;6.60;99.90;;;;;;5049787;28;20403;-83
2021/10/16 03:55:36;;;;;;;15.87;4.37;;;6.70;99.90;;;;;;5081877;28;20391;-82
2021/10/16 03:58:02;;;;;;;12.73;4.25;;;6.70;99.90;;;;;;5049697;28;20479;-83
2021/10/16 04:00:28;;;;;;;12.77;4.60;;;6.80;99.90;;;;;;5049657;28;20402;-83
2021/10/16 04:02:57;;;;;;;11.60;3.90;;;6.80;99.90;;;;;;5050530;28;20374;-83
2021/10/16 04:05:22;;;;;;;12.43;4.03;;;6.80;99.90;;;;;;5051251;28;20395;-83
2021/10/16 04:07:48;;;;;;;9.23;3.80;;;6.80;99.90;;;;;;5053207;28;20784;-83
2021/10/16 04:10:13;;;;;;;9.55;4.18;;;6.80;99.90;;;;;;5052886;28;20376;-83
2021/10/16 04:12:39;;;;;;;11.07;4.30;;;6.90;99.90;;;;;;5051501;28;20882;-83
2021/10/16 04:15:05;;;;;;;17.37;5.53;;;6.90;99.90;;;;;;5052713;28;20380;-83
2021/10/16 04:17:31;;;;;;;8.68;4.20;;;6.90;99.90;;;;;;5052230;28;20379;-83
2021/10/16 04:19:57;;;;;;;12.82;4.68;;;6.90;99.90;;;;;;5050659;28;20387;-83
2021/10/16 04:22:22;;;;;;;14.00;5.40;;;6.90;99.90;;;;;;5053023;28;20387;-83
2021/10/16 04:24:48;;;;;;;14.23;5.17;;;6.90;99.90;;;;;;5050864;28;20380;-84
2021/10/16 04:27:15;;;;;;;13.93;5.32;;;7.00;99.90;;;;;;5052406;28;20437;-83
2021/10/16 04:29:40;;;;;;;11.18;4.25;;;7.00;99.90;;;;;;5051230;28;20406;-83
2021/10/16 04:32:06;;;;;;;12.73;4.53;;;7.10;99.90;;;;;;5050872;28;20415;-83
2021/10/16 04:34:32;;;;;;;14.10;4.73;;;7.20;99.90;;;;;;5051042;28;20777;-83
2021/10/16 04:36:57;;;;;;;12.13;4.30;;;7.20;99.90;;;;;;5052042;28;20784;-83
2021/10/16 04:39:25;;;;;;;14.93;5.00;;;7.20;99.90;;;;;;5050432;28;20411;-83
2021/10/16 04:41:54;;;;;;;20.80;6.00;;;7.20;99.90;;;;;;5050202;28;20889;-83
2021/10/16 04:44:20;;;;;;;17.80;5.80;;;7.20;99.90;;;;;;5050543;28;20384;-84
2021/10/16 04:46:46;;;;;;;16.88;5.57;;;7.30;99.90;;;;;;5049473;28;20388;-83
2021/10/16 04:49:11;;;;;;;12.10;4.97;;;7.30;99.90;;;;;;5051805;28;20517;-83
2021/10/16 04:51:37;;;;;;;14.37;4.93;;;7.40;99.90;;;;;;5052441;28;21024;-83
2021/10/16 04:54:03;;;;;;;13.93;5.00;;;7.40;99.90;;;;;;5051879;28;20432;-83
2021/10/16 04:56:29;;;;;;;16.83;5.73;;;7.40;99.90;;;;;;5052650;28;20368;-83
2021/10/16 04:58:54;;;;;;;18.10;5.07;;;7.50;99.90;;;;;;5052103;28;20414;-83
2021/10/16 05:01:20;;;;;;;19.20;6.53;;;7.50;99.90;;;;;;5050463;28;20384;-83
2021/10/16 05:03:49;;;;;;;19.50;6.17;;;7.50;99.90;;;;;;5050354;28;20376;-84
2021/10/16 05:06:14;;;;;;;21.58;6.25;;;7.50;99.90;;;;;;5050039;28;20890;-83
2021/10/16 05:08:41;;;;;;;16.30;5.95;;;7.50;99.90;;;;;;5052167;28;20387;-83
2021/10/16 05:11:06;;;;;;;15.32;5.38;;;7.60;99.90;;;;;;5050237;28;20395;-83
2021/10/16 05:13:32;;;;;;;17.90;6.30;;;7.60;99.90;;;;;;5050918;28;20948;-83
2021/10/16 05:15:58;;;;;;;17.65;6.05;;;7.70;99.90;;;;;;5051879;28;20391;-83
2021/10/16 05:18:24;;;;;;;12.73;5.53;;;7.70;99.90;;;;;;5050676;28;20400;-83
2021/10/16 05:20:50;;;;;;;14.00;5.47;;;7.70;99.90;;;;;;5051686;28;20765;-83
2021/10/16 05:23:16;;;;;;;17.10;6.15;;;7.70;99.90;;;;;;5051103;28;20384;-83
2021/10/16 05:25:43;;;;;;;14.00;4.87;;;7.70;99.90;;;;;;5050496;28;20917;-83
2021/10/16 05:28:10;;;;;;;14.77;6.43;;;7.80;99.90;;;;;;5050234;28;20692;-83
2021/10/16 05:30:36;;;;;;;28.00;12.55;;;7.70;99.90;;;;;;5052187;28;20379;-83
2021/10/16 05:33:02;;;;;;;21.20;11.43;;;7.80;99.90;;;;;;5051512;28;20525;-83
2021/10/16 05:35:27;;;;;;;24.03;11.67;;;7.90;99.90;;;;;;5051836;28;20917;-83
2021/10/16 05:37:53;;;;;;;23.27;11.07;;;7.90;99.90;;;;;;5050787;28;20406;-83
2021/10/16 05:40:19;;;;;;;21.33;10.25;;;7.90;99.90;;;;;;5051674;28;20391;-83
2021/10/16 05:42:45;;;;;;;22.45;9.75;;;7.90;99.90;;;;;;5051619;28;20407;-84
2021/10/16 05:45:10;;;;;;;16.50;7.93;;;8.00;99.90;;;;;;5050688;28;20384;-84
2021/10/16 05:47:37;;;;;;;25.63;9.30;;;8.00;99.90;;;;;;5048895;28;20393;-83
2021/10/16 05:50:05;;;;;;;14.55;6.30;;;8.00;99.90;;;;;;5049915;28;20388;-84
2021/10/16 05:52:30;;;;;;;13.20;4.90;;;8.00;99.90;;;;;;5049172;28;20428;-84
2021/10/16 05:54:56;;;;;;;16.73;5.43;;;8.00;99.90;;;;;;5048206;28;20420;-84
2021/10/16 05:57:22;;;;;;;22.03;6.07;;;8.00;99.90;;;;;;5050353;28;20374;-83
2021/10/16 05:59:47;;;;;;;17.23;4.97;;;7.90;99.90;;;;;;5049853;28;20408;-83
2021/10/16 06:02:13;;;;;;;19.80;6.32;;;7.90;99.90;;;;;;5048657;28;20419;-83
2021/10/16 06:04:38;;;;;;;17.83;5.53;;;7.90;99.90;;;;;;5051824;28;20463;-83
2021/10/16 06:07:04;;;;;;;10.37;4.53;;;8.00;99.90;;;;;;5050981;28;20375;-83
2021/10/16 06:09:30;;;;;;;15.45;5.40;;;8.10;99.90;;;;;;5049802;28;20400;-83
2021/10/16 06:11:55;;;;;;;14.45;5.30;;;8.20;99.90;;;;;;5049824;28;20437;-83
2021/10/16 06:14:21;;;;;;;16.33;5.27;;;8.20;99.90;;;;;;5051253;28;20402;-83
2021/10/16 06:16:46;;;;;;;17.73;4.93;;;8.30;99.90;;;;;;5049325;28;20461;-83
2021/10/16 06:19:12;;;;;;;14.20;5.10;;;8.40;99.90;;;;;;5051694;28;20747;-83
2021/10/16 06:21:38;;;;;;;13.47;4.80;;;8.40;99.90;;;;;;5049134;28;20738;-84
2021/10/16 06:24:04;;;;;;;19.85;5.88;;;8.50;99.90;;;;;;5050668;28;20388;-83
2021/10/16 06:26:30;;;;;;;20.97;6.90;;;8.50;99.90;;;;;;5050205;28;20502;-83
2021/10/16 06:28:55;;;;;;;19.70;7.30;;;8.50;99.90;;;;;;5048274;28;20742;-84
2021/10/16 06:31:21;;;;;;;16.25;6.63;;;8.60;99.90;;;;;;5049894;28;20746;-83
2021/10/16 06:33:47;;;;;;;13.50;6.00;;;8.60;99.90;;;;;;5049892;28;20443;-83
2021/10/16 06:36:12;;;;;;;20.47;7.50;;;8.60;99.90;;;;;;5049423;28;20387;-84
2021/10/16 06:38:38;;;;;;;24.25;6.72;;;8.70;99.90;;;;;;5049611;28;20457;-84
2021/10/16 06:41:03;;;;;;;15.15;5.68;;;8.60;99.90;;;;;;5049574;28;20384;-83
2021/10/16 06:43:29;;;;;;;18.17;6.07;;;8.60;99.90;;;;;;5049084;28;20414;-83
2021/10/16 06:45:56;;;;;;;17.52;5.28;;;8.70;99.90;;;;;;5050183;28;20498;-83
2021/10/16 06:48:21;;;;;;;16.63;5.72;;;8.80;99.90;;;;;;5048076;28;20750;-83
2021/10/16 06:50:47;;;;;;;23.23;6.33;;;8.90;99.90;;;;;;5049429;28;20372;-84
2021/10/16 06:53:12;;;;;;;18.15;5.63;;;9.00;99.90;;;;;;5047894;28;20380;-84
2021/10/16 07:08:09;;;;;;;14.52;4.70;;;10.00;99.90;;;;;;5051229;28;20515;-83
2021/10/16 07:10:42;;;;;;;15.32;4.68;;;10.00;99.90;;;;;;5031651;28;20812;-83
2021/10/16 07:13:57;;;;;;;13.65;4.55;;;10.00;99.90;;;;;;5032799;28;20381;-82
2021/10/16 07:16:43;;;;;;;14.15;4.47;;;9.90;99.90;;;;;;5025760;28;20389;-82
2021/10/16 07:19:21;;;;;;;15.35;4.63;;;9.90;99.90;;;;;;5063122;28;20939;-82
2021/10/16 07:24:53;;;;;;;17.05;4.75;;;9.90;99.90;;;;;;5048303;28;20422;-83
2021/10/16 07:27:38;;;;;;;15.18;4.90;;;10.00;99.90;;;;;;5051793;28;20390;-83
2021/10/16 07:33:32;;;;;;;14.55;4.80;;;9.90;99.90;;;;;;5049838;28;20410;-83
2021/10/16 07:35:58;;;;;;;12.70;5.72;;;10.00;99.90;;;;;;5013716;28;20381;-82
2021/10/16 07:38:28;;;;;;;17.75;5.97;;;10.10;99.90;;;;;;5052726;28;20403;-82
2021/10/16 07:44:17;;;;;;;14.55;5.70;;;10.30;99.90;;;;;;5055456;28;20395;-83
2021/10/16 07:46:45;;;;;;;14.88;5.13;;;10.40;99.90;;;;;;5052196;28;20390;-84
2021/10/16 07:52:05;;;;;;;15.10;4.45;;;10.40;99.90;;;;;;5051983;28;20395;-82
2021/10/16 07:54:31;;;;;;;11.48;4.65;;;10.40;99.90;;;;;;5054446;28;20395;-83
2021/10/16 07:57:01;;;;;;;14.73;4.73;;;10.40;99.90;;;;;;5053510;28;20394;-82
2021/10/16 07:59:26;;;;;;;13.40;5.00;;;10.50;99.90;;;;;;5053131;28;20426;-80
2021/10/16 08:01:52;;;;;;;13.23;4.63;;;10.60;99.90;;;;;;5054401;28;20865;-82
2021/10/16 08:04:18;;;;;;;18.15;4.93;;;10.60;99.90;;;;;;5053577;28;20877;-81
2021/10/16 08:06:43;;;;;;;18.10;4.87;;;10.50;99.90;;;;;;5052412;28;20376;-82
2021/10/16 08:09:09;;;;;;;15.48;5.53;;;10.60;99.90;;;;;;5054041;28;20466;-81
2021/10/16 08:11:35;;;;;;;16.03;5.20;;;10.50;99.90;;;;;;5054629;28;20386;-81
2021/10/16 08:14:01;;;;;;;13.05;4.63;;;10.50;99.90;;;;;;5053094;28;20445;-82
2021/10/16 08:16:26;;;;;;;13.47;5.17;;;10.60;99.90;;;;;;5053492;28;20463;-81
2021/10/16 08:18:52;;;;;;;9.37;3.67;;;10.70;99.90;;;;;;5054425;28;20414;-81
2021/10/16 08:21:17;;;;;;;10.43;4.28;;;10.90;99.90;;;;;;5053905;28;20386;-82
2021/10/16 08:23:43;;;;;;;13.63;4.20;;;11.20;99.90;;;;;;5051925;28;20739;-82
2021/10/16 08:26:08;;;;;;;10.90;3.78;;;11.30;99.90;;;;;;5051451;28;20467;-82
2021/10/16 08:28:34;;;;;;;13.07;4.30;;;11.40;99.90;;;;;;5052675;28;20388;-82
2021/10/16 08:31:01;;;;;;;9.93;3.72;;;11.50;99.90;;;;;;5041416;28;21088;-83
2021/10/16 08:33:28;;;;;;;12.45;4.03;;;11.60;99.90;;;;;;5048415;28;20401;-83
2021/10/16 08:35:54;;;;;;;9.45;3.67;;;11.70;99.90;;;;;;5049386;28;20500;-84
2021/10/16 08:38:19;;;;;;;11.10;4.20;;;11.90;99.90;;;;;;5049794;28;21004;-82
2021/10/16 08:40:49;;;;;;;10.53;3.93;;;12.10;99.90;;;;;;5050632;28;20390;-83
2021/10/16 08:43:15;;;;;;;9.52;3.58;;;12.30;99.90;;;;;;5048566;28;20375;-83
2021/10/16 08:45:41;;;;;;;6.32;3.30;;;12.60;99.90;;;;;;5049679;28;20734;-83
2021/10/16 08:48:07;;;;;;;9.32;3.42;;;12.80;99.90;;;;;;5049491;28;20474;-83
2021/10/16 08:50:34;;;;;;;12.68;3.50;;;12.90;99.90;;;;;;5048492;28;20463;-83
2021/10/16 08:53:00;;;;;;;13.00;4.13;;;13.10;99.90;;;;;;5047912;28;20925;-80
2021/10/16 08:55:26;;;;;;;11.88;3.60;;;13.00;99.90;;;;;;5048345;28;20546;-81
2021/10/16 08:57:51;;;;;;;12.50;3.57;;;13.00;99.90;;;;;;5049901;28;20928;-81
2021/10/16 09:00:36;;;;;;;10.87;3.80;;;12.80;99.90;;;;;;5051776;28;20402;-81
2021/10/16 09:03:18;;;;;;;9.30;3.38;;;12.80;99.90;;;;;;5053898;28;20372;-81
2021/10/16 09:06:02;;;;;;;11.32;3.60;;;12.70;99.90;;;;;;5053593;28;20388;-80
2021/10/16 09:08:31;;;;;;;13.48;4.10;;;12.80;99.90;;;;;;5054641;28;20881;-79
2021/10/16 09:11:16;;;;;;;10.27;4.05;;;12.80;99.90;;;;;;5053416;28;20380;-80
2021/10/16 09:13:49;;;;;;;11.40;3.97;;;12.80;99.90;;;;;;5052478;28;20391;-81
2021/10/16 09:16:27;;;;;;;11.88;3.55;;;12.80;99.90;;;;;;5051557;28;20415;-81
2021/10/16 09:19:04;;;;;;;13.02;4.28;;;12.90;99.90;;;;;;5033688;28;20405;-82
2021/10/16 09:21:32;;;;;;;10.07;3.40;;;13.00;99.90;;;;;;5042928;28;20407;-81
2021/10/16 09:24:00;;;;;;;9.60;3.00;;;13.20;99.90;;;;;;5050873;28;20376;-81
2021/10/16 09:26:26;;;;;;;10.53;3.57;;;13.20;99.90;;;;;;5052803;28;20475;-82
2021/10/16 09:28:56;;;;;;;10.57;3.73;;;13.30;99.90;;;;;;5051620;28;20415;-82
2021/10/16 09:31:25;;;;;;;10.02;3.33;;;13.30;99.90;;;;;;5050550;28;20422;-81
2021/10/16 09:33:50;;;;;;;12.50;4.05;;;13.20;99.90;;;;;;5050513;28;20478;-82
2021/10/16 09:36:23;;;;;;;13.15;3.88;;;13.20;99.90;;;;;;5050762;28;20932;-84
2021/10/16 09:38:49;;;;;;;15.10;3.87;;;13.20;99.90;;;;;;5048938;28;20399;-82
2021/10/16 09:54:12;;;;;;;9.45;3.33;;;13.30;99.90;;;;;;6088253;22;21420;-82
2021/10/16 09:56:40;;;;;;;8.07;3.27;;;13.20;99.90;;;;;;5031249;28;20397;-83
2021/10/16 09:59:06;;;;;;;9.33;3.13;;;13.20;99.90;;;;;;5040730;28;20412;-83
2021/10/16 10:01:33;;;;;;;13.30;3.25;;;13.30;99.90;;;;;;5044395;28;20476;-84
2021/10/16 10:03:59;;;;;;;10.15;3.20;;;13.20;99.90;;;;;;5043343;28;20372;-83
2021/10/16 10:06:27;;;;;;;9.43;3.17;;;13.20;99.90;;;;;;5046334;28;20753;-82
2021/10/16 10:08:53;;;;;;;9.50;3.40;;;13.30;99.90;;;;;;5043084;28;20556;-84
2021/10/16 10:11:20;;;;;;;8.55;3.33;;;13.30;99.90;;;;;;5046775;28;20947;-84
2021/10/16 10:13:48;;;;;;;9.32;3.17;;;13.20;99.90;;;;;;5044686;28;20434;-84
2021/10/16 10:16:14;;;;;;;8.05;2.83;;;13.10;99.90;;;;;;5046984;28;20451;-83
2021/10/16 10:19:01;;;;;;;8.32;3.03;;;13.20;99.90;;;;;;5043553;28;20419;-83
2021/10/16 10:21:31;;;;;;;8.27;2.55;;;13.40;99.90;;;;;;5046335;28;20418;-82
2021/10/16 10:23:58;;;;;;;7.57;2.35;;;13.60;99.90;;;;;;5047406;28;20380;-84
2021/10/16 10:26:27;;;;;;;9.35;2.30;;;13.80;99.90;;;;;;5043519;28;20381;-83
2021/10/16 10:28:58;;;;;;;5.43;2.25;;;13.90;99.90;;;;;;5029298;28;20402;-83
2021/10/16 10:31:53;;;;;;;7.90;2.33;;;14.20;99.90;;;;;;5036309;28;20476;-84
2021/10/16 10:34:33;;;;;;;5.47;2.45;;;14.60;99.90;;;;;;5037012;28;20409;-85
2021/10/16 10:37:13;;;;;;;10.80;3.03;;;14.80;99.90;;;;;;5040102;28;20433;-83
2021/10/16 10:39:43;;;;;;;8.20;2.55;;;14.90;99.90;;;;;;5040466;28;20864;-82
2021/10/16 10:42:09;;;;;;;8.25;2.30;;;14.80;99.90;;;;;;5037712;28;20392;-83
2021/10/16 10:44:49;;;;;;;5.60;2.10;;;14.60;99.90;;;;;;5037948;28;20708;-83
2021/10/16 10:47:28;;;;;;;7.57;2.23;;;14.50;99.90;;;;;;5040015;28;20877;-83
2021/10/16 10:50:00;;;;;;;6.25;2.20;;;14.40;99.90;;;;;;5035959;28;20845;-84
2021/10/16 10:52:28;;;;;;;8.00;2.70;;;14.30;99.90;;;;;;5038499;28;20930;-82
2021/10/16 10:55:05;;;;;;;8.53;2.60;;;14.40;99.90;;;;;;5039285;28;20407;-82
2021/10/16 10:57:57;;;;;;;7.70;2.60;;;14.40;99.90;;;;;;5038304;28;20841;-82
2021/10/16 11:00:29;;;;;;;8.25;2.70;;;14.30;99.90;;;;;;5038053;28;20426;-82
2021/10/16 11:02:54;;;;;;;8.10;2.70;;;14.10;99.90;;;;;;5036501;28;20435;-82
2021/10/16 11:05:35;;;;;;;6.22;2.20;;;13.90;99.90;;;;;;5030758;28;20373;-83
2021/10/16 11:08:10;;;;;;;6.13;2.60;;;13.80;99.90;;;;;;5030797;28;20863;-82
2021/10/16 11:10:37;;;;;;;6.07;2.30;;;13.60;99.90;;;;;;5028810;28;20482;-82
2021/10/16 11:13:14;;;;;;;8.73;2.80;;;13.40;99.90;;;;;;5032068;28;20393;-81
2021/10/16 11:15:44;;;;;;;7.60;2.65;;;13.30;99.90;;;;;;5051554;28;20445;-83
2021/10/16 11:18:15;;;;;;;7.60;2.72;;;13.40;99.90;;;;;;5055205;28;20419;-82
2021/10/16 11:20:41;;;;;;;8.60;3.08;;;13.80;99.90;;;;;;5054200;28;20450;-81
2021/10/16 11:23:21;;;;;;;7.87;2.80;;;13.90;99.90;;;;;;5052995;28;20410;-84
2021/10/16 11:25:58;;;;;;;8.73;2.80;;;14.30;99.90;;;;;;5044105;28;20910;-84
2021/10/16 11:28:25;;;;;;;8.48;2.60;;;14.70;99.90;;;;;;5040856;28;20443;-83
2021/10/16 11:30:54;;;;;;;6.18;2.22;;;14.80;99.90;;;;;;5044507;28;20400;-82
2021/10/16 11:33:22;;;;;;;8.02;1.95;;;14.70;99.90;;;;;;5043693;28;20474;-82
2021/10/16 11:35:51;;;;;;;6.15;2.20;;;14.80;99.90;;;;;;5041470;28;20884;-82
2021/10/16 11:38:22;;;;;;;6.27;2.20;;;14.60;99.90;;;;;;5036019;28;20532;-82
2021/10/16 11:40:51;;;;;;;6.40;2.15;;;14.60;99.90;;;;;;5034695;28;20408;-83
2021/10/16 11:43:44;;;;;;;7.60;2.93;;;14.30;99.90;;;;;;5033793;28;20373;-82
2021/10/16 11:46:21;;;;;;;6.88;2.20;;;14.30;99.90;;;;;;5031879;28;20393;-83
2021/10/16 11:48:48;;;;;;;7.95;2.25;;;14.20;99.90;;;;;;5037014;28;20398;-81
2021/10/16 11:51:14;;;;;;;4.45;1.60;;;14.30;99.90;;;;;;5054432;28;20375;-82
2021/10/16 11:53:44;;;;;;;7.70;2.03;;;14.30;99.90;;;;;;5053890;28;20870;-83
2021/10/16 11:56:13;;;;;;;5.68;2.28;;;14.30;99.90;;;;;;5052072;28;20420;-81
2021/10/16 11:58:40;;;;;;;7.73;2.70;;;14.40;99.90;;;;;;5051799;28;20892;-86
2021/10/16 12:01:10;;;;;;;9.75;3.65;;;14.30;99.90;;;;;;5052934;28;20449;-84
2021/10/16 12:03:41;;;;;;;7.53;2.67;;;14.10;99.90;;;;;;5052708;28;20395;-84
2021/10/16 12:06:12;;;;;;;6.43;2.30;;;14.20;99.90;;;;;;5053862;28;20455;-83
2021/10/16 12:08:42;;;;;;;7.95;4.32;;;14.20;99.90;;;;;;5052092;28;20861;-83
2021/10/16 12:11:14;;;;;;;7.73;2.50;;;14.40;99.90;;;;;;5045342;28;21220;-82
2021/10/16 12:13:43;;;;;;;6.27;2.10;;;14.50;99.90;;;;;;5040214;28;20807;-83
2021/10/16 12:16:20;;;;;;;7.15;2.45;;;14.80;99.90;;;;;;5039720;28;20880;-81
2021/10/16 12:18:57;;;;;;;7.20;2.60;;;14.80;99.90;;;;;;5040625;28;21006;-84
2021/10/16 12:21:41;;;;;;;7.10;2.90;;;14.70;99.90;;;;;;5035102;28;20418;-82
2021/10/16 12:24:24;;;;;;;8.13;2.53;;;14.60;99.90;;;;;;5045085;28;20390;-81
2021/10/16 12:27:11;;;;;;;6.68;2.20;;;14.60;99.90;;;;;;5046013;28;20395;-82
2021/10/16 12:29:39;;;;;;;15.43;11.43;;;14.70;99.90;;;;;;5048221;28;20394;-82
2021/10/16 12:32:09;;;;;;;7.55;2.28;;;14.60;99.90;;;;;;5048758;28;20380;-82
2021/10/16 12:34:38;;;;;;;9.38;2.40;;;14.60;99.90;;;;;;5047403;28;20869;-81
2021/10/16 12:37:13;;;;;;;5.22;2.17;;;14.50;99.90;;;;;;5047133;28;20467;-82
2021/10/16 12:39:43;;;;;;;6.90;2.70;;;14.60;99.90;;;;;;5048244;28;20777;-85
2021/10/16 12:42:16;;;;;;;6.28;2.40;;;14.50;99.90;;;;;;5047986;28;20379;-84
2021/10/16 12:44:46;;;;;;;6.85;2.13;;;14.10;99.90;;;;;;5047955;28;20733;-83
2021/10/16 12:47:17;;;;;;;8.77;2.30;;;13.90;99.90;;;;;;5045999;28;20392;-82
2021/10/16 12:49:49;;;;;;;8.10;2.80;;;13.80;99.90;;;;;;5047736;28;20395;-82
2021/10/16 12:52:36;;;;;;;6.40;2.50;;;13.70;99.90;;;;;;5044657;28;21184;-82
2021/10/16 12:55:19;;;;;;;5.68;2.60;;;13.80;99.90;;;;;;5039923;28;20395;-82
2021/10/16 12:57:57;;;;;;;5.07;2.50;;;13.70;99.90;;;;;;5047847;28;20916;-83
2021/10/16 13:00:27;;;;;;;7.03;3.07;;;13.80;99.90;;;;;;5048930;28;20406;-82
2021/10/16 13:02:53;;;;;;;10.10;3.45;;;13.70;99.90;;;;;;5033421;28;20412;-81
2021/10/16 13:05:21;;;;;;;8.93;3.70;;;13.60;99.90;;;;;;5029397;28;20814;-82
2021/10/16 13:07:47;;;;;;;9.07;2.97;;;13.50;99.90;;;;;;5031713;28;20374;-82
2021/10/16 13:10:13;;;;;;;8.45;2.92;;;13.50;99.90;;;;;;5031898;28;20771;-83
2021/10/16 13:12:42;;;;;;;10.37;3.17;;;13.60;99.90;;;;;;5036632;28;20388;-83
2021/10/16 13:15:08;;;;;;;7.18;2.70;;;13.50;99.90;;;;;;5031438;28;20830;-82
2021/10/16 13:17:35;;;;;;;7.53;2.70;;;13.40;99.90;;;;;;5039827;28;20537;-82
2021/10/16 13:20:01;;;;;;;6.95;3.20;;;13.50;99.90;;;;;;5037410;28;21175;-83
2021/10/16 13:22:26;;;;;;;8.40;2.95;;;13.50;99.90;;;;;;5039857;28;20380;-82
2021/10/16 13:24:52;;;;;;;6.30;2.65;;;13.30;99.90;;;;;;5036992;28;20386;-83
2021/10/16 13:27:19;;;;;;;8.30;3.05;;;13.40;99.90;;;;;;5040387;28;20379;-82
2021/10/16 13:29:45;;;;;;;6.28;3.00;;;13.50;99.90;;;;;;5040551;28;20772;-83